createdAt,value
2022-08-28T00:01:13.613Z,16.00
2022-08-28T00:03:41.202Z,16.50
2022-08-28T00:06:08.836Z,14.50
2022-08-28T00:08:36.803Z,13.75
2022-08-28T00:11:05.199Z,14.75
2022-08-28T00:13:32.865Z,18.25
2022-08-28T00:16:01.524Z,13.50
2022-08-28T00:18:31.613Z,16.25
2022-08-28T00:21:00.481Z,12.75
2022-08-28T00:23:42.537Z,13.50
2022-08-28T00:26:32.478Z,15.25
2022-08-28T00:29:00.624Z,13.75
2022-08-28T00:31:28.351Z,17.75
2022-08-28T00:33:56.002Z,14.25
2022-08-28T00:36:24.191Z,18.00
2022-08-28T00:38:51.891Z,15.25
2022-08-28T00:41:23.689Z,19.25
2022-08-28T00:44:08.527Z,16.25
2022-08-28T00:46:38.106Z,16.25
2022-08-28T00:49:07.300Z,11.75
2022-08-28T00:51:55.068Z,15.00
2022-08-28T00:54:23.211Z,11.50
2022-08-28T00:56:52.398Z,16.25
2022-08-28T00:59:23.711Z,17.50
2022-08-28T01:01:56.272Z,14.00
2022-08-28T01:04:26.068Z,16.25
2022-08-28T01:06:57.120Z,12.75
2022-08-28T01:09:28.886Z,15.25
2022-08-28T01:12:03.438Z,14.75
2022-08-28T01:14:34.122Z,16.00
2022-08-28T01:17:02.722Z,14.75
2022-08-28T01:19:35.355Z,13.50
2022-08-28T01:22:40.028Z,16.75
2022-08-28T01:25:13.572Z,14.50
2022-08-28T01:27:42.368Z,13.50
2022-08-28T01:30:13.800Z,12.00
2022-08-28T01:32:53.989Z,12.75
2022-08-28T01:35:26.437Z,15.25
2022-08-28T01:37:56.161Z,12.25
2022-08-28T01:40:31.782Z,12.00
2022-08-28T01:43:09.471Z,16.75
2022-08-28T01:45:38.037Z,12.75
2022-08-28T01:48:07.475Z,14.25
2022-08-28T01:50:36.012Z,11.75
2022-08-28T01:53:05.559Z,12.75
2022-08-28T01:55:36.181Z,14.25
2022-08-28T01:58:07.462Z,14.00
2022-08-28T02:00:35.731Z,14.50
2022-08-28T02:03:04.078Z,10.50
2022-08-28T02:05:33.429Z,11.25
2022-08-28T02:08:03.822Z,14.50
2022-08-28T02:10:35.601Z,10.50
2022-08-28T02:13:04.783Z,16.50
2022-08-28T02:15:34.948Z,17.25
2022-08-28T02:18:02.944Z,14.50
2022-08-28T02:20:31.390Z,14.25
2022-08-28T02:22:59.152Z,8.50
2022-08-28T02:25:28.208Z,12.75
2022-08-28T02:27:56.160Z,15.25
2022-08-28T02:30:24.143Z,15.00
2022-08-28T02:32:51.915Z,17.50
2022-08-28T02:35:21.783Z,9.50
2022-08-28T02:37:50.256Z,12.00
2022-08-28T02:40:20.555Z,14.00
2022-08-28T02:42:48.220Z,12.00
2022-08-28T02:45:16.539Z,7.50
2022-08-28T02:47:46.039Z,13.00
2022-08-28T02:50:17.241Z,14.50
2022-08-28T02:52:44.816Z,11.50
2022-08-28T02:55:14.582Z,14.75
2022-08-28T02:57:43.037Z,12.50
2022-08-28T03:00:14.059Z,10.25
2022-08-28T03:02:43.169Z,12.00
2022-08-28T03:05:11.959Z,10.00
2022-08-28T03:07:39.777Z,14.25
2022-08-28T03:10:08.318Z,15.50
2022-08-28T03:12:36.858Z,15.50
2022-08-28T03:15:06.285Z,12.75
2022-08-28T03:17:34.362Z,17.00
2022-08-28T03:20:02.500Z,17.50
2022-08-28T03:22:48.282Z,16.75
2022-08-28T03:25:17.702Z,15.50
2022-08-28T03:27:45.378Z,12.25
2022-08-28T03:30:14.969Z,12.00
2022-08-28T03:32:42.574Z,10.25
2022-08-28T03:35:10.534Z,13.25
2022-08-28T03:37:38.783Z,8.50
2022-08-28T03:40:07.838Z,14.00
2022-08-28T03:42:35.562Z,14.00
2022-08-28T03:45:03.048Z,15.00
2022-08-28T03:47:30.891Z,17.75
2022-08-28T03:49:58.940Z,11.00
2022-08-28T03:52:26.838Z,13.00
2022-08-28T03:54:54.342Z,15.00
2022-08-28T03:57:23.329Z,14.50
2022-08-28T03:59:53.485Z,12.75
2022-08-28T04:02:21.672Z,11.75
2022-08-28T04:04:51.101Z,9.50
2022-08-28T04:07:20.434Z,15.75
2022-08-28T04:09:48.202Z,13.00
2022-08-28T04:12:16.276Z,13.25
2022-08-28T04:14:43.899Z,13.00
2022-08-28T04:17:11.595Z,13.00
2022-08-28T04:19:39.403Z,13.00
2022-08-28T04:22:08.464Z,14.75
2022-08-28T04:24:37.064Z,15.25
2022-08-28T04:27:04.562Z,10.75
2022-08-28T04:29:32.257Z,11.25
2022-08-28T04:31:59.944Z,13.75
2022-08-28T04:34:27.519Z,13.75
2022-08-28T04:36:55.022Z,12.25
2022-08-28T04:39:22.561Z,13.25
2022-08-28T04:41:50.514Z,14.25
2022-08-28T04:44:17.927Z,11.25
2022-08-28T04:46:45.446Z,10.00
2022-08-28T04:49:16.389Z,9.50
2022-08-28T04:51:43.653Z,11.25
2022-08-28T04:54:14.521Z,14.25
2022-08-28T04:56:42.214Z,11.50
2022-08-28T04:59:11.862Z,8.60
2022-08-28T05:01:42.760Z,12.40
2022-08-28T05:04:12.151Z,8.80
2022-08-28T05:06:46.728Z,10.20
2022-08-28T05:09:16.951Z,11.80
2022-08-28T05:11:44.837Z,10.40
2022-08-28T05:14:15.874Z,9.40
2022-08-28T05:16:49.618Z,7.80
2022-08-28T05:19:19.333Z,10.80
2022-08-28T05:21:48.116Z,10.60
2022-08-28T05:24:15.794Z,7.60
2022-08-28T05:26:43.442Z,7.00
2022-08-28T05:29:11.649Z,8.20
2022-08-28T05:31:41.453Z,8.00
2022-08-28T05:34:10.611Z,8.60
2022-08-28T05:36:39.051Z,11.20
2022-08-28T05:39:09.587Z,5.80
2022-08-28T05:41:39.653Z,7.00
2022-08-28T05:44:09.137Z,8.80
2022-08-28T05:46:38.379Z,6.40
2022-08-28T05:49:09.858Z,9.00
2022-08-28T05:51:41.252Z,9.60
2022-08-28T05:54:09.196Z,10.40
2022-08-28T05:56:39.201Z,6.00
2022-08-28T05:59:07.711Z,8.00
2022-08-28T06:01:40.015Z,4.40
2022-08-28T06:04:11.357Z,10.40
2022-08-28T06:06:40.682Z,7.00
2022-08-28T06:09:13.693Z,7.80
2022-08-28T06:11:44.710Z,7.00
2022-08-28T06:14:15.763Z,4.00
2022-08-28T06:16:49.065Z,10.00
2022-08-28T06:19:18.047Z,4.00
2022-08-28T06:21:48.424Z,6.20
2022-08-28T06:24:16.143Z,8.80
2022-08-28T06:26:44.029Z,6.40
2022-08-28T06:29:13.878Z,6.00
2022-08-28T06:31:42.089Z,7.80
2022-08-28T06:34:10.455Z,9.20
2022-08-28T06:36:42.019Z,7.00
2022-08-28T06:39:12.364Z,6.40
2022-08-28T06:41:43.338Z,5.40
2022-08-28T06:44:14.183Z,6.20
2022-08-28T06:46:42.310Z,5.20
2022-08-28T06:49:11.536Z,6.00
2022-08-28T06:51:40.480Z,3.80
2022-08-28T06:54:08.151Z,3.20
2022-08-28T06:56:36.602Z,6.60
2022-08-28T06:59:05.444Z,6.00
2022-08-28T07:01:35.954Z,6.00
2022-08-28T07:04:07.543Z,5.80
2022-08-28T07:06:38.423Z,6.00
2022-08-28T07:09:09.343Z,9.20
2022-08-28T07:11:37.983Z,4.00
2022-08-28T07:14:06.198Z,4.60
2022-08-28T07:16:38.459Z,4.00
2022-08-28T07:19:07.362Z,4.60
2022-08-28T07:21:38.791Z,5.00
2022-08-28T07:24:08.702Z,4.00
2022-08-28T07:26:37.416Z,6.00
2022-08-28T07:29:10.193Z,4.00
2022-08-28T07:31:44.901Z,6.80
2022-08-28T07:34:14.554Z,4.80
2022-08-28T07:36:45.464Z,6.60
2022-08-28T07:39:16.360Z,5.60
2022-08-28T07:41:44.757Z,2.00
2022-08-28T07:44:33.356Z,1.20
2022-08-28T07:47:04.531Z,5.00
2022-08-28T07:49:33.996Z,4.40
2022-08-28T07:52:02.032Z,3.60
2022-08-28T07:54:29.708Z,4.40
2022-08-28T07:57:04.903Z,6.00
2022-08-28T07:59:36.642Z,3.40
2022-08-28T08:02:06.158Z,6.00
2022-08-28T08:04:34.281Z,6.00
2022-08-28T08:07:04.374Z,5.00
2022-08-28T08:09:36.541Z,5.00
2022-08-28T08:12:06.082Z,5.60
2022-08-28T08:14:38.257Z,4.60
2022-08-28T08:17:07.308Z,6.20
2022-08-28T08:19:35.682Z,5.40
2022-08-28T08:22:03.762Z,4.20
2022-08-28T08:24:31.611Z,3.40
2022-08-28T08:27:01.227Z,3.80
2022-08-28T08:29:33.961Z,4.60
2022-08-28T08:32:06.193Z,4.60
2022-08-28T08:34:39.024Z,4.00
2022-08-28T08:37:07.744Z,2.00
2022-08-28T08:39:36.639Z,4.00
2022-08-28T08:42:08.559Z,5.80
2022-08-28T08:44:41.525Z,2.60
2022-08-28T08:47:22.945Z,3.00
2022-08-28T08:49:56.374Z,3.00
2022-08-28T08:53:07.193Z,0.20
2022-08-28T08:55:42.832Z,3.40
2022-08-28T08:58:28.907Z,4.20
2022-08-28T09:01:06.768Z,6.00
2022-08-28T09:03:45.596Z,5.60
2022-08-28T09:06:54.633Z,6.20
2022-08-28T09:13:29.670Z,3.80
2022-08-28T09:15:57.522Z,5.40
2022-08-28T09:18:28.866Z,5.20
2022-08-28T09:21:02.077Z,8.00
2022-08-28T09:29:24.859Z,5.20
2022-08-28T09:31:52.767Z,4.00
2022-08-28T09:34:24.963Z,4.80
2022-08-28T09:36:54.200Z,1.00
2022-08-28T09:39:30.965Z,4.00
2022-08-28T09:42:44.090Z,4.20
2022-08-28T09:45:19.001Z,3.00
2022-08-28T09:47:51.123Z,4.00
2022-08-28T09:50:57.876Z,4.00
2022-08-28T09:53:28.834Z,3.00
2022-08-28T09:56:19.417Z,3.60
2022-08-28T09:59:00.472Z,4.20
2022-08-28T10:01:50.453Z,1.80
2022-08-28T10:04:50.393Z,3.20
2022-08-28T10:07:35.392Z,3.60
2022-08-28T10:10:48.348Z,3.60
2022-08-28T10:13:43.294Z,4.60
2022-08-28T10:16:14.676Z,3.00
2022-08-28T10:18:49.541Z,3.00
2022-08-28T10:21:45.071Z,2.80
2022-08-28T10:24:38.859Z,4.60
2022-08-28T10:27:16.036Z,3.80
2022-08-28T10:30:11.193Z,3.60
2022-08-28T10:33:25.911Z,4.60
2022-08-28T10:36:09.498Z,4.00
2022-08-28T10:39:49.620Z,4.60
2022-08-28T10:42:58.236Z,3.20
2022-08-28T10:45:26.602Z,4.40
2022-08-28T10:48:09.819Z,3.20
2022-08-28T10:50:50.622Z,4.60
2022-08-28T10:53:23.588Z,3.60
2022-08-28T10:56:26.429Z,3.00
2022-08-28T10:58:59.289Z,3.40
2022-08-28T11:01:34.427Z,2.00
2022-08-28T11:04:10.630Z,3.40
2022-08-28T11:06:53.846Z,5.00
2022-08-28T11:09:33.700Z,2.80
2022-08-28T11:12:07.781Z,2.40
2022-08-28T11:14:47.094Z,5.80
2022-08-28T11:17:28.263Z,4.00
2022-08-28T11:20:18.747Z,3.00
2022-08-28T11:22:56.739Z,5.80
2022-08-28T11:25:50.477Z,4.20
2022-08-28T11:28:36.667Z,11.40
2022-08-28T11:31:04.433Z,4.20
2022-08-28T11:33:52.801Z,2.60
2022-08-28T11:36:20.901Z,3.40
2022-08-28T11:39:18.997Z,3.40
2022-08-28T11:42:11.822Z,4.60
2022-08-28T11:44:42.933Z,3.00
2022-08-28T11:47:32.534Z,3.00
2022-08-28T11:50:12.083Z,4.80
2022-08-28T11:53:05.824Z,5.60
2022-08-28T11:56:06.160Z,3.20
2022-08-28T11:58:42.284Z,2.80
2022-08-28T12:01:14.678Z,4.40
2022-08-28T12:03:55.399Z,5.00
2022-08-28T12:06:45.053Z,4.00
2022-08-28T12:09:34.184Z,5.00
2022-08-28T12:12:25.230Z,4.80
2022-08-28T12:14:55.823Z,5.00
2022-08-28T12:17:25.946Z,3.00
2022-08-28T12:20:32.952Z,2.80
2022-08-28T12:23:25.101Z,5.00
2022-08-28T12:26:07.821Z,4.40
2022-08-28T12:28:47.175Z,5.00
2022-08-28T12:31:14.803Z,3.80
2022-08-28T12:34:02.660Z,3.00
2022-08-28T12:36:31.636Z,3.80
2022-08-28T12:38:59.192Z,3.00
2022-08-28T12:41:27.781Z,2.80
2022-08-28T12:43:58.679Z,3.80
2022-08-28T12:46:33.037Z,3.60
2022-08-28T12:49:03.496Z,4.60
2022-08-28T12:51:34.342Z,3.60
2022-08-28T12:54:04.862Z,3.00
2022-08-28T12:56:35.161Z,3.40
2022-08-28T12:59:27.161Z,3.80
2022-08-28T13:02:01.757Z,3.20
2022-08-28T13:04:39.482Z,4.00
2022-08-28T13:07:14.032Z,3.00
2022-08-28T13:09:51.701Z,5.00
2022-08-28T13:12:51.672Z,3.80
2022-08-28T13:15:12.019Z,5.00
2022-08-28T13:17:53.577Z,4.60
2022-08-28T13:20:30.377Z,3.80
2022-08-28T13:22:58.704Z,5.40
2022-08-28T13:25:33.122Z,3.80
2022-08-28T13:28:04.978Z,4.00
2022-08-28T13:36:24.151Z,4.40
2022-08-28T13:38:51.962Z,4.40
2022-08-28T13:41:19.722Z,3.80
2022-08-28T13:43:47.804Z,3.80
2022-08-28T13:46:15.286Z,2.60
2022-08-28T13:48:42.752Z,3.80
2022-08-28T13:51:20.799Z,5.60
2022-08-28T13:53:49.937Z,4.60
2022-08-28T13:56:18.072Z,3.20
2022-08-28T13:58:47.961Z,3.40
2022-08-28T14:01:45.472Z,3.60
2022-08-28T14:04:13.656Z,4.80
2022-08-28T14:06:44.563Z,3.80
2022-08-28T14:09:17.526Z,3.80
2022-08-28T14:11:47.302Z,1.40
2022-08-28T14:14:15.021Z,5.00
2022-08-28T14:16:42.901Z,4.00
2022-08-28T14:19:10.621Z,2.40
2022-08-28T14:21:41.014Z,5.00
2022-08-28T14:24:12.979Z,5.40
2022-08-28T14:26:41.269Z,3.60
2022-08-28T14:29:11.362Z,4.00
2022-08-28T14:31:44.374Z,4.60
2022-08-28T14:34:18.761Z,3.80
2022-08-28T14:36:51.022Z,2.60
2022-08-28T14:39:18.551Z,3.80
2022-08-28T14:41:47.201Z,4.00
2022-08-28T14:44:15.389Z,3.60
2022-08-28T14:46:45.693Z,4.40
2022-08-28T14:49:16.082Z,3.80
2022-08-28T14:51:45.439Z,4.20
2022-08-28T14:54:15.184Z,4.00
2022-08-28T14:56:43.736Z,5.00
2022-08-28T14:59:23.648Z,3.00
2022-08-28T15:01:53.336Z,4.80
2022-08-28T15:04:24.037Z,4.20
2022-08-28T15:06:58.333Z,3.40
2022-08-28T15:09:26.881Z,2.20
2022-08-28T15:11:54.856Z,4.60
2022-08-28T15:14:22.327Z,5.00
2022-08-28T15:16:50.147Z,4.00
2022-08-28T15:19:18.523Z,4.40
2022-08-28T15:21:49.677Z,3.00
2022-08-28T15:24:19.081Z,5.00
2022-08-28T15:26:47.186Z,4.00
2022-08-28T15:29:15.064Z,3.60
2022-08-28T15:31:46.137Z,6.00
2022-08-28T15:34:20.045Z,5.00
2022-08-28T15:36:54.497Z,2.60
2022-08-28T15:39:43.764Z,4.00
2022-08-28T15:42:12.493Z,4.20
2022-08-28T15:44:40.390Z,5.00
2022-08-28T15:47:08.258Z,3.20
2022-08-28T15:49:46.604Z,3.40
2022-08-28T15:52:18.756Z,3.20
2022-08-28T15:54:46.636Z,6.20
2022-08-28T15:57:14.055Z,8.80
2022-08-28T15:59:49.468Z,16.80
2022-08-28T16:02:20.674Z,6.00
2022-08-28T16:04:48.862Z,8.00
2022-08-28T16:07:16.946Z,9.00
2022-08-28T16:09:44.568Z,24.40
2022-08-28T16:12:12.118Z,10.40
2022-08-28T16:14:39.676Z,7.60
2022-08-28T16:17:47.131Z,8.40
2022-08-28T16:19:55.199Z,24.00
2022-08-28T16:22:22.782Z,18.80
2022-08-28T16:24:51.336Z,10.00
2022-08-28T16:27:18.754Z,17.20
2022-08-28T16:29:46.446Z,14.60
2022-08-28T16:32:17.278Z,8.40
2022-08-28T16:34:45.077Z,11.40
2022-08-28T16:37:12.869Z,13.20
2022-08-28T16:39:40.839Z,9.00
2022-08-28T16:42:08.671Z,8.00
2022-08-28T16:44:37.139Z,6.40
2022-08-28T16:47:04.797Z,6.80
2022-08-28T16:49:32.256Z,7.00
2022-08-28T16:52:00.118Z,6.00
2022-08-28T16:54:27.684Z,7.40
2022-08-28T16:56:55.152Z,8.40
2022-08-28T16:59:24.122Z,7.00
2022-08-28T17:01:53.694Z,6.20
2022-08-28T17:04:22.456Z,6.60
2022-08-28T17:06:50.388Z,8.00
2022-08-28T17:09:21.042Z,4.80
2022-08-28T17:11:52.126Z,7.60
2022-08-28T17:14:21.411Z,9.00
2022-08-28T17:16:50.036Z,5.20
2022-08-28T17:19:18.536Z,7.40
2022-08-28T17:22:04.971Z,5.80
2022-08-28T17:24:32.549Z,8.80
2022-08-28T17:27:05.245Z,6.00
2022-08-28T17:29:34.868Z,6.00
2022-08-28T17:32:02.532Z,8.00
2022-08-28T17:34:30.572Z,7.00
2022-08-28T17:36:58.509Z,5.40
2022-08-28T17:39:26.081Z,10.20
2022-08-28T17:41:53.711Z,9.80
2022-08-28T17:44:21.631Z,9.20
2022-08-28T17:46:49.457Z,6.80
2022-08-28T17:49:18.474Z,7.60
2022-08-28T17:51:45.946Z,8.20
2022-08-28T17:54:15.476Z,8.00
2022-08-28T17:56:43.325Z,7.60
2022-08-28T17:59:11.861Z,10.40
2022-08-28T18:01:40.219Z,16.00
2022-08-28T18:04:07.987Z,12.80
2022-08-28T18:06:35.418Z,11.60
2022-08-28T18:09:03.861Z,10.60
2022-08-28T18:11:31.442Z,6.80
2022-08-28T18:13:59.974Z,13.80
2022-08-28T18:16:31.516Z,9.40
2022-08-28T18:19:00.248Z,10.40
2022-08-28T18:21:28.239Z,12.60
2022-08-28T18:23:56.221Z,10.40
2022-08-28T18:26:23.802Z,13.80
2022-08-28T18:28:51.520Z,14.20
2022-08-28T18:31:19.896Z,10.40
2022-08-28T18:33:47.651Z,13.60
2022-08-28T18:36:16.439Z,14.60
2022-08-28T18:38:44.626Z,10.20
2022-08-28T18:41:13.276Z,29.00
2022-08-28T18:43:41.089Z,16.80
2022-08-28T18:46:09.672Z,13.80
2022-08-28T18:48:38.072Z,15.00
2022-08-28T18:51:12.806Z,14.50
2022-08-28T18:53:42.605Z,17.00
2022-08-28T18:56:12.188Z,12.20
2022-08-28T18:58:41.037Z,12.00
2022-08-28T19:01:09.641Z,10.60
2022-08-28T19:03:37.673Z,9.00
2022-08-28T19:06:06.611Z,10.00
2022-08-28T19:08:36.634Z,11.00
2022-08-28T19:11:07.902Z,11.40
2022-08-28T19:13:36.283Z,11.40
2022-08-28T19:16:05.044Z,12.00
2022-08-28T19:18:32.681Z,9.00
2022-08-28T19:21:09.087Z,9.00
2022-08-28T19:23:37.191Z,9.00
2022-08-28T19:26:06.943Z,10.00
2022-08-28T19:28:35.681Z,10.80
2022-08-28T19:31:04.657Z,12.25
2022-08-28T19:33:32.441Z,9.25
2022-08-28T19:36:00.023Z,9.25
2022-08-28T19:38:30.920Z,13.50
2022-08-28T19:40:58.951Z,12.50
2022-08-28T19:43:36.149Z,13.25
2022-08-28T19:46:18.428Z,11.75
2022-08-28T19:48:50.597Z,12.75
2022-08-28T19:51:22.383Z,11.25
2022-08-28T19:53:57.996Z,9.00
2022-08-28T19:56:28.374Z,12.00
2022-08-28T19:58:58.702Z,12.00
2022-08-28T20:01:30.103Z,16.50
2022-08-28T20:03:59.534Z,10.00
2022-08-28T20:06:28.522Z,11.00
2022-08-28T20:08:56.273Z,11.75
2022-08-28T20:11:25.492Z,12.25
2022-08-28T20:14:04.467Z,13.50
2022-08-28T20:16:35.643Z,10.00
2022-08-28T20:19:05.156Z,12.50
2022-08-28T20:21:37.157Z,12.50
2022-08-28T20:24:11.840Z,12.50
2022-08-28T20:26:39.749Z,13.50
2022-08-28T20:29:09.188Z,8.50
2022-08-28T20:31:40.672Z,14.25
2022-08-28T20:34:09.988Z,12.50
2022-08-28T20:36:39.811Z,11.00
2022-08-28T20:39:09.635Z,11.75
2022-08-28T20:41:39.215Z,11.00
2022-08-28T20:44:08.659Z,11.50
2022-08-28T20:46:40.941Z,12.50
2022-08-28T20:49:13.936Z,20.25
2022-08-28T20:51:57.720Z,14.50
2022-08-28T20:54:32.870Z,12.75
2022-08-28T20:57:03.126Z,14.25
2022-08-28T20:59:40.255Z,14.25
2022-08-28T21:02:14.689Z,15.50
2022-08-28T21:04:44.040Z,13.75
2022-08-28T21:07:12.941Z,12.25
2022-08-28T21:10:04.275Z,15.25
2022-08-28T21:12:28.977Z,11.50
2022-08-28T21:14:56.794Z,12.00
2022-08-28T21:17:30.206Z,18.00
2022-08-28T21:20:04.808Z,13.50
2022-08-28T21:22:32.798Z,15.00
2022-08-28T21:25:00.898Z,12.75
2022-08-28T21:27:28.908Z,11.25
2022-08-28T21:29:58.739Z,12.50
2022-08-28T21:32:27.837Z,11.75
2022-08-28T21:34:55.499Z,14.50
2022-08-28T21:37:24.014Z,11.50
2022-08-28T21:39:53.830Z,14.50
2022-08-28T21:42:24.748Z,11.25
2022-08-28T21:44:52.367Z,14.25
2022-08-28T21:47:23.392Z,12.50
2022-08-28T21:49:53.611Z,9.50
2022-08-28T21:52:23.872Z,13.00
2022-08-28T21:54:56.310Z,17.25
2022-08-28T21:57:24.381Z,11.50
2022-08-28T21:59:51.997Z,16.50
2022-08-28T22:02:19.927Z,13.75
2022-08-28T22:04:49.360Z,15.50
2022-08-28T22:07:18.021Z,20.00
2022-08-28T22:09:46.206Z,9.75
2022-08-28T22:12:14.039Z,14.25
2022-08-28T22:14:42.469Z,9.75
2022-08-28T22:17:11.949Z,10.75
2022-08-28T22:19:40.076Z,12.50
2022-08-28T22:22:27.663Z,13.25
2022-08-28T22:24:55.456Z,11.00
2022-08-28T22:27:23.236Z,10.50
2022-08-28T22:29:51.535Z,15.25
2022-08-28T22:32:23.071Z,12.25
2022-08-28T22:34:50.652Z,9.75
2022-08-28T22:37:18.407Z,9.75
2022-08-28T22:39:46.335Z,12.75
2022-08-28T22:42:13.994Z,14.50
2022-08-28T22:44:41.697Z,13.00
2022-08-28T22:47:09.304Z,14.00
2022-08-28T22:49:39.642Z,9.75
2022-08-28T22:52:11.233Z,12.75
2022-08-28T22:54:39.063Z,8.50
2022-08-28T22:57:07.121Z,12.50
2022-08-28T22:59:35.294Z,15.50
2022-08-28T23:02:03.936Z,13.75
2022-08-28T23:04:31.749Z,12.00
2022-08-28T23:06:59.448Z,16.25
2022-08-28T23:09:27.851Z,9.75
2022-08-28T23:11:55.687Z,13.00
2022-08-28T23:14:27.910Z,11.25
2022-08-28T23:16:56.271Z,12.50
2022-08-28T23:19:24.604Z,12.75
2022-08-28T23:21:53.801Z,14.25
2022-08-28T23:24:21.563Z,14.50
2022-08-28T23:26:49.294Z,14.00
2022-08-28T23:29:17.101Z,11.50
2022-08-28T23:31:44.921Z,13.25
2022-08-28T23:34:13.753Z,8.25
2022-08-28T23:36:43.046Z,7.75
2022-08-28T23:39:11.121Z,13.00
2022-08-28T23:41:39.020Z,11.75
2022-08-28T23:44:09.202Z,10.00
2022-08-28T23:46:37.325Z,8.75
2022-08-28T23:49:10.045Z,11.25
2022-08-28T23:51:38.426Z,12.25
2022-08-28T23:54:06.551Z,10.00
2022-08-28T23:56:34.361Z,11.50
2022-08-28T23:59:02.040Z,7.75
